createdAt,value
2022-10-26T00:08:10.570Z,21.70
2022-10-26T00:18:37.941Z,20.00
2022-10-26T00:29:05.486Z,21.40
2022-10-26T00:39:32.754Z,26.80
2022-10-26T00:50:05.130Z,25.30
2022-10-26T01:00:32.824Z,20.60
2022-10-26T01:11:01.579Z,22.40
2022-10-26T01:21:42.917Z,23.70
2022-10-26T01:32:15.404Z,20.00
2022-10-26T01:42:49.874Z,20.60
2022-10-26T01:53:20.010Z,20.70
2022-10-26T02:03:56.491Z,23.20
2022-10-26T02:14:32.340Z,24.90
2022-10-26T02:25:03.523Z,22.70
2022-10-26T02:35:35.752Z,21.80
2022-10-26T02:46:08.490Z,22.90
2022-10-26T02:56:42.863Z,25.10
2022-10-26T03:07:10.563Z,21.50
2022-10-26T03:17:37.864Z,22.80
2022-10-26T03:28:07.504Z,24.60
2022-10-26T03:38:34.967Z,23.70
2022-10-26T03:49:02.119Z,20.20
2022-10-26T03:59:29.416Z,18.50
2022-10-26T04:09:56.746Z,16.10
2022-10-26T04:20:24.037Z,15.80
2022-10-26T04:30:51.517Z,24.40
2022-10-26T04:41:18.784Z,17.90
2022-10-26T04:51:46.126Z,23.40
2022-10-26T05:02:13.469Z,50.80
2022-10-26T05:12:40.841Z,30.30
2022-10-26T05:23:11.662Z,24.10
2022-10-26T05:33:38.962Z,21.60
2022-10-26T05:44:06.538Z,22.20
2022-10-26T05:54:33.866Z,24.40
2022-10-26T06:05:06.107Z,23.50
2022-10-26T06:15:39.437Z,22.20
2022-10-26T06:26:18.553Z,21.00
2022-10-26T06:36:48.957Z,17.30
2022-10-26T06:47:23.650Z,18.20
2022-10-26T06:57:52.237Z,17.80
2022-10-26T07:08:19.773Z,18.30
2022-10-26T07:18:47.067Z,25.40
2022-10-26T07:29:16.425Z,20.60
2022-10-26T07:39:43.874Z,22.90
2022-10-26T07:50:12.227Z,16.60
2022-10-26T08:00:39.588Z,11.10
2022-10-26T08:11:07.777Z,8.00
2022-10-26T08:32:08.542Z,9.00
2022-10-26T08:42:41.081Z,7.40
2022-10-26T08:53:16.969Z,6.60
2022-10-26T09:03:44.281Z,5.80
2022-10-26T09:14:19.867Z,4.20
2022-10-26T09:24:54.175Z,4.70
2022-10-26T09:35:24.470Z,5.40
2022-10-26T09:45:54.082Z,3.70
2022-10-26T09:56:21.754Z,4.00
2022-10-26T10:06:50.629Z,3.70
2022-10-26T10:17:23.791Z,3.70
2022-10-26T10:27:55.870Z,5.30
2022-10-26T10:38:23.927Z,3.00
2022-10-26T10:48:55.591Z,3.20
2022-10-26T10:59:38.498Z,3.30
2022-10-26T11:10:08.353Z,13.30
2022-10-26T11:20:40.801Z,2.30
2022-10-26T11:31:12.432Z,1.10
2022-10-26T11:41:48.406Z,1.40
2022-10-26T11:52:20.222Z,1.60
2022-10-26T12:02:51.347Z,1.50
2022-10-26T12:13:27.447Z,1.80
2022-10-26T12:24:00.561Z,1.30
2022-10-26T12:35:01.230Z,2.30
2022-10-26T12:45:28.636Z,1.80
2022-10-26T12:56:07.284Z,2.10
2022-10-26T13:06:53.218Z,1.90
2022-10-26T13:17:28.015Z,1.80
2022-10-26T13:28:05.682Z,1.80
2022-10-26T13:59:47.605Z,3.80
2022-10-26T14:10:29.260Z,2.50
2022-10-26T14:21:01.606Z,3.50
2022-10-26T14:31:31.334Z,3.90
2022-10-26T14:42:01.014Z,3.50
2022-10-26T14:52:31.438Z,4.00
2022-10-26T15:02:59.633Z,3.10
2022-10-26T15:13:32.285Z,2.40
2022-10-26T15:24:00.494Z,4.80
2022-10-26T15:34:27.888Z,2.50
2022-10-26T15:44:56.522Z,3.40
2022-10-26T15:55:23.913Z,2.80
2022-10-26T16:05:55.006Z,5.00
2022-10-26T16:16:23.076Z,4.70
2022-10-26T16:26:50.653Z,3.20
2022-10-26T16:37:17.966Z,3.10
2022-10-26T16:47:45.304Z,2.60
2022-10-26T16:58:12.838Z,4.00
2022-10-26T17:08:40.110Z,4.40
2022-10-26T17:19:07.514Z,6.10
2022-10-26T17:29:34.898Z,6.30
2022-10-26T17:40:02.166Z,6.50
2022-10-26T17:50:29.588Z,3.40
2022-10-26T18:00:57.037Z,8.90
2022-10-26T18:11:27.505Z,12.70
2022-10-26T18:21:54.970Z,9.70
2022-10-26T18:32:22.414Z,10.00
2022-10-26T18:42:49.710Z,9.20
2022-10-26T18:53:16.992Z,16.10
2022-10-26T19:03:45.114Z,13.30
2022-10-26T19:14:13.835Z,9.90
2022-10-26T19:24:45.005Z,14.40
2022-10-26T19:35:12.750Z,10.50
2022-10-26T19:45:40.153Z,8.90
2022-10-26T19:56:11.756Z,10.40
2022-10-26T20:06:39.056Z,12.40
2022-10-26T20:17:06.962Z,29.80
2022-10-26T20:27:34.297Z,23.70
2022-10-26T20:38:02.959Z,24.30
2022-10-26T20:48:31.493Z,18.00
2022-10-26T20:59:01.088Z,20.40
2022-10-26T21:09:29.113Z,16.60
2022-10-26T21:19:58.057Z,23.00
2022-10-26T21:30:25.578Z,24.00
2022-10-26T21:40:53.114Z,35.60
2022-10-26T21:51:22.017Z,28.90
2022-10-26T22:01:49.428Z,22.30
2022-10-26T22:12:16.989Z,27.30
2022-10-26T22:22:44.528Z,24.80
2022-10-26T22:33:11.962Z,23.30
2022-10-26T22:43:39.474Z,21.70
2022-10-26T22:54:07.366Z,33.50
2022-10-26T23:04:34.983Z,29.50
2022-10-26T23:15:02.563Z,22.10
2022-10-26T23:25:30.298Z,25.10
2022-10-26T23:35:57.734Z,26.20
2022-10-26T23:56:57.542Z,33.70
